Time,TemperatureF,DewpointF,PressureIn,WindDirection,WindDirectionDegrees,WindSpeedMPH,WindSpeedGustMPH,Humidity,HourlyPrecipIn,Conditions,Clouds,dailyrainin,SoftwareType,DateUTC
2013-04-01 00:02:00,44.7,42.0,30.05,NW,307,0.0,0.0,91,0.00,,,0.03,weatherlink.com 1.10,2013-04-01 04:02:00,
2013-04-01 00:17:00,45.0,43.0,30.05,West,273,0.0,1.0,93,0.00,,,0.00,weatherlink.com 1.10,2013-04-01 04:17:00,
2013-04-01 00:32:00,44.9,43.0,30.05,West,273,0.0,0.0,91,0.00,,,0.00,weatherlink.com 1.10,2013-04-01 04:32:00,
2013-04-01 00:47:00,43.6,42.0,30.06,SW,230,0.0,1.0,92,0.00,,,0.00,weatherlink.com 1.10,2013-04-01 04:47:00,
2013-04-01 01:02:00,44.0,41.0,30.05,SW,230,0.0,0.0,90,0.00,,,0.00,weatherlink.com 1.10,2013-04-01 05:02:00,
2013-04-01 01:17:00,42.9,40.0,30.05,SW,230,0.0,0.0,89,0.00,,,0.00,weatherlink.com 1.10,2013-04-01 05:17:00,
2013-04-01 01:32:00,43.1,40.0,30.06,WSW,252,6.0,9.0,89,0.00,,,0.00,weatherlink.com 1.10,2013-04-01 05:32:00,
2013-04-01 01:47:00,45.6,40.0,30.06,SW,233,4.0,9.0,80,0.00,,,0.00,weatherlink.com 1.10,2013-04-01 05:47:00,
2013-04-01 02:02:00,45.9,38.0,30.06,West,265,4.0,7.0,75,0.00,,,0.00,weatherlink.com 1.10,2013-04-01 06:02:00,
2013-04-01 02:17:00,46.6,37.0,30.07,SW,215,2.0,8.0,69,0.00,,,0.00,weatherlink.com 1.10,2013-04-01 06:17:00,
2013-04-01 02:32:00,47.4,36.0,30.07,West,265,2.0,7.0,65,0.00,,,0.00,weatherlink.com 1.10,2013-04-01 06:32:00,
2013-04-01 02:47:00,47.6,36.0,30.07,SW,221,6.0,8.0,64,0.00,,,0.00,weatherlink.com 1.10,2013-04-01 06:47:00,
2013-04-01 03:02:00,47.0,35.0,30.07,WSW,254,2.0,8.0,64,0.00,,,0.00,weatherlink.com 1.10,2013-04-01 07:02:00,
2013-04-01 03:17:00,47.2,35.0,30.07,West,259,5.0,7.0,63,0.00,,,0.00,weatherlink.com 1.10,2013-04-01 07:17:00,
2013-04-01 03:32:00,46.9,35.0,30.07,SW,221,6.0,8.0,63,0.00,,,0.00,weatherlink.com 1.10,2013-04-01 07:32:00,
2013-04-01 03:47:00,47.0,35.0,30.07,WNW,300,5.0,11.0,64,0.00,,,0.00,weatherlink.com 1.10,2013-04-01 07:47:00,
2013-04-01 04:02:00,45.5,35.0,30.07,SW,219,4.0,6.0,67,0.00,,,0.00,weatherlink.com 1.10,2013-04-01 08:02:00,
2013-04-01 04:17:00,44.8,35.0,30.06,SW,225,4.0,7.0,69,0.00,,,0.00,weatherlink.com 1.10,2013-04-01 08:17:00,
2013-04-01 04:32:00,43.7,35.0,30.06,SW,224,1.0,2.0,71,0.00,,,0.00,weatherlink.com 1.10,2013-04-01 08:32:00,
2013-04-01 04:47:00,42.3,35.0,30.06,SSW,213,4.0,5.0,74,0.00,,,0.00,weatherlink.com 1.10,2013-04-01 08:47:00,
2013-04-01 05:02:00,41.3,35.0,30.05,South,188,0.0,4.0,77,0.00,,,0.00,weatherlink.com 1.10,2013-04-01 09:02:00,
2013-04-01 05:17:00,42.2,34.0,30.04,WNW,288,0.0,5.0,74,0.00,,,0.00,weatherlink.com 1.10,2013-04-01 09:17:00,
2013-04-01 05:32:00,39.8,33.0,30.05,SW,226,2.0,5.0,78,0.00,,,0.00,weatherlink.com 1.10,2013-04-01 09:32:00,
2013-04-01 05:47:00,39.2,34.0,30.05,West,277,2.0,6.0,82,0.00,,,0.00,weatherlink.com 1.10,2013-04-01 09:47:00,
2013-04-01 06:02:00,39.7,34.0,30.05,West,281,0.0,4.0,80,0.00,,,0.00,weatherlink.com 1.10,2013-04-01 10:02:00,
2013-04-01 06:17:00,39.5,34.0,30.05,WSW,258,0.0,5.0,82,0.00,,,0.00,weatherlink.com 1.10,2013-04-01 10:17:00,
2013-04-01 06:32:00,39.4,34.0,30.05,WSW,250,4.0,5.0,82,0.00,,,0.00,weatherlink.com 1.10,2013-04-01 10:32:00,
2013-04-01 06:48:00,39.6,35.0,30.05,NNW,335,0.0,5.0,82,0.00,,,0.00,weatherlink.com 1.10,2013-04-01 10:48:00,
2013-04-01 07:03:00,39.5,34.0,30.06,WNW,302,3.0,5.0,82,0.00,,,0.00,weatherlink.com 1.10,2013-04-01 11:03:00,
2013-04-01 07:18:00,40.4,35.0,30.06,SW,220,0.0,4.0,81,0.00,,,0.00,weatherlink.com 1.10,2013-04-01 11:18:00,
2013-04-01 07:33:00,41.4,36.0,30.06,WNW,288,0.0,4.0,81,0.00,,,0.00,weatherlink.com 1.10,2013-04-01 11:33:00,
2013-04-01 07:48:00,43.4,37.0,30.07,West,281,6.0,9.0,78,0.00,,,0.00,weatherlink.com 1.10,2013-04-01 11:48:00,
2013-04-01 08:03:00,43.9,37.0,30.07,West,276,5.0,8.0,77,0.00,,,0.00,weatherlink.com 1.10,2013-04-01 12:03:00,
2013-04-01 08:18:00,44.8,38.0,30.06,SW,229,0.0,6.0,78,0.00,,,0.00,weatherlink.com 1.10,2013-04-01 12:18:00,
2013-04-01 08:33:00,44.5,38.0,30.07,WSW,238,2.0,7.0,79,0.00,,,0.00,weatherlink.com 1.10,2013-04-01 12:33:00,
2013-04-01 08:48:00,45.8,39.0,30.06,West,265,6.0,9.0,78,0.00,,,0.00,weatherlink.com 1.10,2013-04-01 12:48:00,
2013-04-01 09:03:00,47.1,40.0,30.06,NW,324,1.0,7.0,76,0.00,,,0.00,weatherlink.com 1.10,2013-04-01 13:03:00,
2013-04-01 09:18:00,48.5,41.0,30.05,West,266,6.0,9.0,74,0.00,,,0.00,weatherlink.com 1.10,2013-04-01 13:18:00,
2013-04-01 09:33:00,50.5,41.0,30.04,SW,226,4.0,8.0,71,0.00,,,0.00,weatherlink.com 1.10,2013-04-01 13:33:00,
2013-04-01 09:48:00,52.4,42.0,30.04,SSW,212,9.0,15.0,69,0.00,,,0.00,weatherlink.com 1.10,2013-04-01 13:48:00,
2013-04-01 10:03:00,53.2,42.0,30.05,WSW,248,11.0,16.0,66,0.00,,,0.00,weatherlink.com 1.10,2013-04-01 14:03:00,
2013-04-01 10:18:00,53.9,42.0,30.06,WNW,284,9.0,16.0,64,0.00,,,0.00,weatherlink.com 1.10,2013-04-01 14:18:00,
2013-04-01 10:33:00,51.0,43.0,30.06,WNW,298,5.0,21.0,75,0.00,,,0.00,weatherlink.com 1.10,2013-04-01 14:33:00,
2013-04-01 10:48:00,52.9,43.0,30.06,WSW,248,11.0,18.0,70,0.00,,,0.00,weatherlink.com 1.10,2013-04-01 14:48:00,
2013-04-01 11:03:00,53.0,43.0,30.06,SW,226,8.0,12.0,68,0.00,,,0.00,weatherlink.com 1.10,2013-04-01 15:03:00,
2013-04-01 11:18:00,53.8,43.0,30.05,SW,230,9.0,10.0,66,0.00,,,0.00,weatherlink.com 1.10,2013-04-01 15:18:00,
2013-04-01 11:33:00,54.9,43.0,30.04,WSW,257,11.0,15.0,64,0.00,,,0.00,weatherlink.com 1.10,2013-04-01 15:33:00,
2013-04-01 11:48:00,56.5,40.0,30.04,West,272,10.0,23.0,55,0.00,,,0.00,weatherlink.com 1.10,2013-04-01 15:48:00,
2013-04-01 12:03:00,55.5,40.0,30.05,WSW,252,15.0,18.0,56,0.00,,,0.00,weatherlink.com 1.10,2013-04-01 16:03:00,
2013-04-01 12:18:00,55.0,41.0,30.05,WSW,244,8.0,18.0,59,0.00,,,0.00,weatherlink.com 1.10,2013-04-01 16:18:00,
2013-04-01 12:33:00,54.3,40.0,30.05,West,265,7.0,16.0,59,0.00,,,0.00,weatherlink.com 1.10,2013-04-01 16:33:00,
2013-04-01 12:48:00,54.4,38.0,30.05,WNW,284,5.0,19.0,55,0.00,,,0.00,weatherlink.com 1.10,2013-04-01 16:48:00,
2013-04-01 13:03:00,54.6,36.0,30.05,WNW,301,21.0,22.0,50,0.00,,,0.00,weatherlink.com 1.10,2013-04-01 17:03:00,
2013-04-01 13:18:00,54.6,36.0,30.04,NW,309,12.0,25.0,50,0.00,,,0.00,weatherlink.com 1.10,2013-04-01 17:18:00,
2013-04-01 13:33:00,54.4,36.0,30.04,WNW,294,18.0,25.0,50,0.00,,,0.00,weatherlink.com 1.10,2013-04-01 17:33:00,
2013-04-01 13:48:00,55.3,35.0,30.04,WNW,286,22.0,27.0,47,0.00,,,0.00,weatherlink.com 1.10,2013-04-01 17:48:00,
2013-04-01 14:03:00,56.6,36.0,30.04,West,274,13.0,24.0,47,0.00,,,0.00,weatherlink.com 1.10,2013-04-01 18:03:00,
2013-04-01 14:18:00,56.9,37.0,30.04,NW,309,9.0,19.0,47,0.00,,,0.00,weatherlink.com 1.10,2013-04-01 18:18:00,
2013-04-01 14:33:00,55.4,34.0,30.04,NW,318,15.0,23.0,45,0.00,,,0.00,weatherlink.com 1.10,2013-04-01 18:33:00,
2013-04-01 14:48:00,54.5,35.0,30.05,West,266,11.0,26.0,48,0.00,,,0.00,weatherlink.com 1.10,2013-04-01 18:48:00,
2013-04-01 15:03:00,54.8,35.0,30.05,WNW,292,16.0,23.0,47,0.00,,,0.00,weatherlink.com 1.10,2013-04-01 19:03:00,
2013-04-01 15:18:00,53.7,34.0,30.05,NNW,334,14.0,20.0,48,0.00,,,0.00,weatherlink.com 1.10,2013-04-01 19:18:00,
2013-04-01 15:33:00,50.4,36.0,30.07,NW,324,12.0,23.0,59,0.00,,,0.00,weatherlink.com 1.10,2013-04-01 19:33:00,
2013-04-01 15:48:00,50.7,36.0,30.07,NW,304,13.0,22.0,57,0.00,,,0.00,weatherlink.com 1.10,2013-04-01 19:48:00,
2013-04-01 16:03:00,51.4,34.0,30.08,WNW,292,11.0,26.0,52,0.00,,,0.00,weatherlink.com 1.10,2013-04-01 20:03:00,
2013-04-01 16:18:00,49.8,32.0,30.09,NNE,23,11.0,28.0,51,0.00,,,0.00,weatherlink.com 1.10,2013-04-01 20:18:00,
2013-04-01 16:33:00,49.7,31.0,30.09,North,355,22.0,33.0,48,0.00,,,0.00,weatherlink.com 1.10,2013-04-01 20:33:00,
2013-04-01 16:48:00,49.5,29.0,30.10,WNW,290,28.0,30.0,46,0.00,,,0.00,weatherlink.com 1.10,2013-04-01 20:48:00,
2013-04-01 17:03:00,49.6,30.0,30.11,NW,305,18.0,24.0,48,0.00,,,0.00,weatherlink.com 1.10,2013-04-01 21:03:00,
2013-04-01 17:19:00,48.0,30.0,30.11,NNW,329,18.0,27.0,50,0.00,,,0.00,weatherlink.com 1.10,2013-04-01 21:19:00,
2013-04-01 17:34:00,47.3,29.0,30.12,North,9,12.0,27.0,50,0.00,,,0.00,weatherlink.com 1.10,2013-04-01 21:34:00,
2013-04-01 17:49:00,47.0,29.0,30.13,NW,309,22.0,28.0,50,0.00,,,0.00,weatherlink.com 1.10,2013-04-01 21:49:00,
2013-04-01 18:04:00,46.7,27.0,30.13,NW,306,13.0,28.0,46,0.00,,,0.00,weatherlink.com 1.10,2013-04-01 22:04:00,
2013-04-01 18:19:00,46.8,25.0,30.14,WNW,289,19.0,33.0,43,0.00,,,0.00,weatherlink.com 1.10,2013-04-01 22:19:00,
2013-04-01 18:34:00,45.6,26.0,30.15,WNW,292,8.0,22.0,46,0.00,,,0.00,weatherlink.com 1.10,2013-04-01 22:34:00,
2013-04-01 18:49:00,45.1,26.0,30.15,NNW,330,10.0,20.0,48,0.00,,,0.00,weatherlink.com 1.10,2013-04-01 22:49:00,
2013-04-01 19:04:00,44.3,27.0,30.16,WNW,300,14.0,25.0,50,0.00,,,0.00,weatherlink.com 1.10,2013-04-01 23:04:00,
2013-04-01 19:20:00,44.3,25.0,30.17,NW,319,13.0,24.0,47,0.00,,,0.00,weatherlink.com 1.10,2013-04-01 23:20:00,
2013-04-01 19:34:00,43.6,26.0,30.18,WNW,288,8.0,14.0,50,0.00,,,0.00,weatherlink.com 1.10,2013-04-01 23:34:00,
2013-04-01 19:49:00,42.7,26.0,30.18,WNW,286,3.0,9.0,52,0.00,,,0.00,weatherlink.com 1.10,2013-04-01 23:49:00,
2013-04-01 20:04:00,42.2,26.0,30.19,NNW,338,0.0,8.0,53,0.00,,,0.00,weatherlink.com 1.10,2013-04-02 00:04:00,
2013-04-01 20:19:00,41.3,26.0,30.19,WSW,254,0.0,1.0,56,0.00,,,0.00,weatherlink.com 1.10,2013-04-02 00:19:00,
2013-04-01 20:34:00,40.0,24.0,30.20,SW,227,4.0,6.0,54,0.00,,,0.00,weatherlink.com 1.10,2013-04-02 00:34:00,
2013-04-01 20:49:00,40.6,25.0,30.20,SSW,192,2.0,7.0,54,0.00,,,0.00,weatherlink.com 1.10,2013-04-02 00:49:00,
2013-04-01 21:04:00,39.9,25.0,30.21,SW,227,5.0,6.0,56,0.00,,,0.00,weatherlink.com 1.10,2013-04-02 01:04:00,
2013-04-01 21:19:00,40.0,24.0,30.21,SW,214,5.0,8.0,54,0.00,,,0.00,weatherlink.com 1.10,2013-04-02 01:19:00,
2013-04-01 21:34:00,39.7,24.0,30.22,SSW,205,4.0,6.0,54,0.00,,,0.00,weatherlink.com 1.10,2013-04-02 01:34:00,
2013-04-01 21:49:00,39.4,24.0,30.22,SW,220,6.0,6.0,55,0.00,,,0.00,weatherlink.com 1.10,2013-04-02 01:49:00,
2013-04-01 22:04:00,39.8,23.0,30.22,SSW,209,3.0,6.0,52,0.00,,,0.00,weatherlink.com 1.10,2013-04-02 02:04:00,
2013-04-01 22:19:00,39.7,23.0,30.23,SSW,192,5.0,7.0,52,0.00,,,0.00,weatherlink.com 1.10,2013-04-02 02:19:00,
2013-04-01 22:34:00,40.0,23.0,30.23,SW,226,2.0,10.0,51,0.00,,,0.00,weatherlink.com 1.10,2013-04-02 02:34:00,
2013-04-01 22:49:00,39.6,22.0,30.24,NNW,341,4.0,7.0,49,0.00,,,0.00,weatherlink.com 1.10,2013-04-02 02:49:00,
2013-04-01 23:04:00,40.0,20.0,30.25,NNW,331,6.0,9.0,44,0.00,,,0.00,weatherlink.com 1.10,2013-04-02 03:04:00,
2013-04-01 23:19:00,40.3,20.0,30.25,North,355,0.0,9.0,44,0.00,,,0.00,weatherlink.com 1.10,2013-04-02 03:19:00,
2013-04-01 23:34:00,40.7,17.0,30.25,NW,326,8.0,20.0,39,0.00,,,0.00,weatherlink.com 1.10,2013-04-02 03:34:00,
2013-04-01 23:49:00,40.5,17.0,30.26,WNW,293,5.0,15.0,39,0.00,,,0.00,weatherlink.com 1.10,2013-04-02 03:49:00,